Port Angeles, Washington
Current Conditions -  °F | °C
As of 7:53 PM on Sunday 23 Nov 2014 (Local Time) from KCLM Reporting Station
Clear Clear  
Wind Chill:   Ceiling: Unl
Heat Index:   Visibility: 10mi
Dew Point:   Wind: 16mph
Humidity: 74%   Direction: 250°WSW
Pressure: 30.25"   Gusts: NA
Location:  48.12°N, 123.43°W
Report Text: KCLM 240353Z AUTO 25014KT 10SM CLR 07/03 A3025 RMK AO2 SLP244 T00720028 $
Loading
Personal Weather Stations






























Interactive Weather Map New forecast layout! Learn more

10-Day Weather Forecast

Advertisements
Track Severe Weather on mobile